Time;durP1;ratioP1;P1;durP2;ratioP2;P2;SDS_P1;SDS_P2;PMS_P1;PMS_P2;Temp;Humidity;BMP_temperature;BMP_pressure;BME280_temperature;BME280_humidity;BME280_pressure;Samples;Min_cycle;Max_cycle;Signal;HPM_P1;HPM_P2
2022/08/08 00:01:15;;;;;;;1.33;0.60;;;;;;;;;;4987425;28;20409;-66
2022/08/08 00:03:58;;;;;;;0.95;0.40;;;;;;;;;;4988366;28;20332;-65
2022/08/08 00:06:47;;;;;;;1.33;0.55;;;;;;;;;;4988349;28;20025;-65
2022/08/08 00:09:15;;;;;;;0.73;0.30;;;;;;;;;;4985657;28;20443;-65
2022/08/08 00:11:43;;;;;;;1.20;0.57;;;;;;;;;;4987051;28;20506;-65
2022/08/08 00:14:21;;;;;;;1.60;0.63;;;;;;;;;;4987124;28;20340;-65
2022/08/08 00:17:09;;;;;;;0.65;0.40;;;;;;;;;;4987367;28;20342;-65
2022/08/08 00:19:58;;;;;;;1.98;0.30;;;;;;;;;;4985978;28;20455;-65
2022/08/08 00:22:27;;;;;;;1.27;0.32;;;;;;;;;;4985671;28;20090;-65
2022/08/08 00:24:56;;;;;;;;;;;;;;;;;;4987754;28;20129;-65
2022/08/08 00:27:21;;;;;;;0.45;0.30;;;;;;;;;;4984910;28;20224;-65
2022/08/08 00:30:03;;;;;;;0.52;0.50;;;;;;;;;;4985472;28;20311;-65
2022/08/08 00:32:31;;;;;;;0.77;0.30;;;;;;;;;;4987002;28;20458;-65
2022/08/08 00:35:19;;;;;;;0.60;0.40;;;;;;;;;;4988808;28;20332;-65
2022/08/08 00:37:54;;;;;;;0.47;0.45;;;;;;;;;;4990545;28;20055;-65
2022/08/08 00:40:22;;;;;;;1.05;0.28;;;;;;;;;;4990526;28;20400;-65
2022/08/08 00:43:13;;;;;;;1.13;0.50;;;;;;;;;;4990519;28;20497;-65
2022/08/08 00:45:50;;;;;;;0.63;0.30;;;;;;;;;;4991726;28;20370;-65
2022/08/08 00:48:55;;;;;;;0.50;0.40;;;;;;;;;;4990278;28;20485;-65
2022/08/08 00:51:48;;;;;;;0.80;0.30;;;;;;;;;;4988948;28;20375;-65
2022/08/08 00:54:45;;;;;;;1.20;0.45;;;;;;;;;;4990536;28;20510;-66
2022/08/08 00:57:14;;;;;;;0.53;0.50;;;;;;;;;;4989856;28;20028;-65
2022/08/08 01:00:02;;;;;;;2.33;0.70;;;;;;;;;;4990307;28;20443;-65
2022/08/08 01:03:08;;;;;;;3.08;0.75;;;;;;;;;;4977380;28;20326;-65
2022/08/08 01:05:58;;;;;;;0.82;0.35;;;;;;;;;;4969359;28;20455;-65
2022/08/08 01:08:48;;;;;;;2.55;0.65;;;;;;;;;;4970200;28;20471;-65
2022/08/08 01:11:25;;;;;;;0.55;0.40;;;;;;;;;;4970680;28;20425;-65
2022/08/08 01:13:53;;;;;;;1.38;0.40;;;;;;;;;;4970355;28;20451;-65
2022/08/08 01:16:46;;;;;;;3.40;0.50;;;;;;;;;;4971907;28;20344;-65
2022/08/08 01:19:49;;;;;;;0.50;0.35;;;;;;;;;;4968613;28;20048;-65
2022/08/08 01:22:30;;;;;;;0.40;0.30;;;;;;;;;;4971329;28;20416;-65
2022/08/08 01:25:23;;;;;;;0.70;0.40;;;;;;;;;;4971488;28;20458;-65
2022/08/08 01:28:22;;;;;;;0.60;0.45;;;;;;;;;;4969381;28;20498;-65
2022/08/08 01:31:35;;;;;;;0.50;0.38;;;;;;;;;;4971500;28;20335;-65
2022/08/08 01:34:12;;;;;;;0.90;0.57;;;;;;;;;;4977395;28;20073;-65
2022/08/08 01:37:14;;;;;;;0.50;0.30;;;;;;;;;;4969817;28;20444;-65
2022/08/08 01:40:14;;;;;;;1.52;0.60;;;;;;;;;;4969768;28;20321;-65
2022/08/08 01:43:03;;;;;;;0.38;0.38;;;;;;;;;;4986868;28;20512;-65
2022/08/08 01:45:55;;;;;;;1.48;0.38;;;;;;;;;;4970215;28;20541;-66
2022/08/08 01:48:34;;;;;;;0.32;0.30;;;;;;;;;;4969514;28;20363;-67
2022/08/08 01:51:29;;;;;;;0.90;0.40;;;;;;;;;;4970320;28;20420;-65
2022/08/08 01:54:08;;;;;;;0.80;0.50;;;;;;;;;;4984512;28;20456;-65
2022/08/08 01:56:55;;;;;;;0.55;0.50;;;;;;;;;;4968179;28;20069;-65
2022/08/08 01:59:35;;;;;;;0.65;0.40;;;;;;;;;;4969551;28;20470;-65
2022/08/08 02:02:41;;;;;;;0.75;0.50;;;;;;;;;;4970637;28;20450;-65
2022/08/08 02:05:57;;;;;;;0.75;0.40;;;;;;;;;;4969352;28;20448;-65
2022/08/08 02:08:46;;;;;;;1.13;0.70;;;;;;;;;;4978500;28;20371;-65
2022/08/08 02:11:28;;;;;;;1.17;0.40;;;;;;;;;;4969435;28;20147;-65
2022/08/08 02:14:04;;;;;;;0.68;0.50;;;;;;;;;;4969277;28;20116;-65
2022/08/08 02:17:10;;;;;;;0.70;0.40;;;;;;;;;;4969083;28;20367;-65
2022/08/08 02:19:43;;;;;;;1.80;0.40;;;;;;;;;;4970037;28;20363;-66
2022/08/08 02:22:30;;;;;;;0.75;0.47;;;;;;;;;;4986241;28;20351;-65
2022/08/08 02:25:16;;;;;;;1.38;0.50;;;;;;;;;;4967309;28;20441;-65
2022/08/08 02:28:03;;;;;;;0.47;0.40;;;;;;;;;;4967416;28;20457;-65
2022/08/08 02:30:47;;;;;;;0.73;0.50;;;;;;;;;;4967261;28;20348;-65
2022/08/08 02:33:47;;;;;;;1.08;0.43;;;;;;;;;;4968598;28;20330;-65
2022/08/08 02:36:39;;;;;;;1.20;0.40;;;;;;;;;;4984032;28;20597;-65
2022/08/08 02:39:07;;;;;;;0.47;0.40;;;;;;;;;;4967330;28;20369;-65
2022/08/08 02:42:10;;;;;;;1.33;0.47;;;;;;;;;;4968783;28;20045;-65
2022/08/08 02:45:16;;;;;;;0.57;0.50;;;;;;;;;;4968543;28;20116;-65
2022/08/08 02:48:00;;;;;;;1.17;0.68;;;;;;;;;;4966965;28;20344;-65
2022/08/08 02:51:01;;;;;;;2.20;0.70;;;;;;;;;;4968414;28;20419;-65
2022/08/08 02:54:00;;;;;;;1.83;0.45;;;;;;;;;;4969504;28;20332;-65
2022/08/08 02:56:44;;;;;;;1.35;0.63;;;;;;;;;;4967225;28;20475;-65
2022/08/08 02:59:25;;;;;;;0.77;0.40;;;;;;;;;;4970031;28;20056;-65
2022/08/08 03:02:11;;;;;;;2.33;0.73;;;;;;;;;;4968573;28;20476;-65
2022/08/08 03:05:15;;;;;;;1.05;0.38;;;;;;;;;;4966809;28;20435;-65
2022/08/08 03:08:18;;;;;;;0.57;0.40;;;;;;;;;;4968173;28;20456;-65
2022/08/08 03:11:05;;;;;;;1.10;0.40;;;;;;;;;;4968632;28;20363;-65
2022/08/08 03:13:48;;;;;;;0.50;0.30;;;;;;;;;;4968039;28;20452;-65
2022/08/08 03:16:56;;;;;;;0.75;0.30;;;;;;;;;;4968461;28;20348;-67
2022/08/08 03:19:21;;;;;;;0.70;0.50;;;;;;;;;;4966708;28;20511;-65
2022/08/08 03:21:46;;;;;;;1.08;0.40;;;;;;;;;;4968055;28;20436;-66
2022/08/08 03:24:16;;;;;;;0.47;0.40;;;;;;;;;;4968486;28;20321;-65
2022/08/08 03:26:48;;;;;;;0.82;0.60;;;;;;;;;;4968382;28;20757;-65
2022/08/08 03:29:17;;;;;;;0.52;0.40;;;;;;;;;;4966471;28;20154;-65
2022/08/08 03:34:27;;;;;;;0.30;0.30;;;;;;;;;;4968150;28;20418;-65
2022/08/08 03:36:52;;;;;;;0.50;0.30;;;;;;;;;;4967973;28;20029;-65
2022/08/08 03:39:18;;;;;;;0.47;0.40;;;;;;;;;;4969888;28;20102;-66
2022/08/08 03:41:43;;;;;;;0.70;0.60;;;;;;;;;;4966850;28;20365;-65
2022/08/08 03:44:09;;;;;;;0.50;0.30;;;;;;;;;;4967866;28;20408;-65
2022/08/08 03:46:48;;;;;;;0.77;0.50;;;;;;;;;;4967844;28;20436;-65
2022/08/08 03:49:19;;;;;;;1.65;0.60;;;;;;;;;;4967745;28;20463;-65
2022/08/08 03:51:45;;;;;;;0.55;0.35;;;;;;;;;;4967888;28;20360;-65
2022/08/08 03:54:11;;;;;;;1.67;0.47;;;;;;;;;;4967684;28;20022;-67
2022/08/08 03:56:36;;;;;;;0.73;0.40;;;;;;;;;;4967756;28;20479;-65
2022/08/08 03:59:02;;;;;;;1.83;0.57;;;;;;;;;;4967811;28;20398;-65
2022/08/08 04:01:46;;;;;;;0.80;0.60;;;;;;;;;;4967674;28;20017;-65
2022/08/08 04:04:11;;;;;;;0.93;0.52;;;;;;;;;;4967800;28;20465;-65
2022/08/08 04:06:37;;;;;;;1.23;0.38;;;;;;;;;;4975563;28;20037;-65
2022/08/08 04:09:06;;;;;;;0.40;0.40;;;;;;;;;;4957132;28;20485;-65
2022/08/08 04:11:31;;;;;;;0.43;0.38;;;;;;;;;;4950997;28;20503;-65
2022/08/08 04:13:57;;;;;;;0.65;0.50;;;;;;;;;;4951967;28;20445;-65
2022/08/08 04:16:22;;;;;;;0.43;0.40;;;;;;;;;;4951854;28;20467;-66
2022/08/08 04:18:48;;;;;;;2.00;0.80;;;;;;;;;;4952039;28;20547;-65
2022/08/08 04:21:14;;;;;;;2.67;0.60;;;;;;;;;;4951589;28;20065;-65
2022/08/08 04:23:40;;;;;;;0.70;0.60;;;;;;;;;;4952713;28;20452;-65
2022/08/08 04:26:05;;;;;;;1.08;0.40;;;;;;;;;;4952489;28;20461;-66
2022/08/08 04:28:31;;;;;;;0.68;0.50;;;;;;;;;;4951367;28;20539;-65
2022/08/08 04:30:56;;;;;;;1.02;0.50;;;;;;;;;;4951723;28;20411;-65
2022/08/08 04:33:22;;;;;;;2.88;0.68;;;;;;;;;;4949982;28;20349;-65
2022/08/08 04:35:47;;;;;;;0.40;0.40;;;;;;;;;;4951671;28;20344;-66
2022/08/08 04:38:12;;;;;;;0.95;0.57;;;;;;;;;;4951474;28;20463;-65
2022/08/08 04:40:38;;;;;;;0.93;0.40;;;;;;;;;;4952332;28;20172;-65
2022/08/08 04:43:04;;;;;;;2.10;0.63;;;;;;;;;;4951388;28;20394;-65
2022/08/08 04:45:29;;;;;;;0.20;0.20;;;;;;;;;;4952135;28;20404;-65
2022/08/08 04:47:57;;;;;;;0.60;0.40;;;;;;;;;;4951866;28;20433;-65
2022/08/08 04:50:23;;;;;;;0.75;0.43;;;;;;;;;;4951145;28;20030;-66
2022/08/08 04:52:49;;;;;;;0.43;0.43;;;;;;;;;;4951214;28;20433;-66
2022/08/08 04:55:14;;;;;;;1.25;0.50;;;;;;;;;;4951681;28;20452;-65
2022/08/08 04:57:39;;;;;;;1.42;0.32;;;;;;;;;;4951126;28;20417;-66
2022/08/08 05:00:06;;;;;;;1.63;0.50;;;;;;;;;;4952267;28;20504;-65
2022/08/08 05:02:32;;;;;;;0.20;0.20;;;;;;;;;;4950831;28;20353;-65
2022/08/08 05:04:58;;;;;;;1.02;0.40;;;;;;;;;;4951190;28;20392;-65
2022/08/08 05:07:23;;;;;;;0.50;0.50;;;;;;;;;;4951934;28;20437;-65
2022/08/08 05:09:48;;;;;;;0.95;0.35;;;;;;;;;;4951459;28;20510;-65
2022/08/08 05:12:14;;;;;;;0.70;0.40;;;;;;;;;;4950758;28;20034;-65
2022/08/08 05:14:39;;;;;;;0.68;0.50;;;;;;;;;;4951719;28;20397;-65
2022/08/08 05:17:05;;;;;;;0.70;0.30;;;;;;;;;;4950751;28;20345;-65
2022/08/08 05:19:30;;;;;;;1.55;0.50;;;;;;;;;;4950828;28;20144;-65
2022/08/08 05:21:55;;;;;;;1.02;0.60;;;;;;;;;;4950180;28;20460;-66
2022/08/08 05:24:21;;;;;;;1.70;0.50;;;;;;;;;;4950917;28;20436;-65
2022/08/08 05:26:48;;;;;;;4.07;0.60;;;;;;;;;;4950810;28;20129;-65
2022/08/08 05:29:13;;;;;;;1.52;0.50;;;;;;;;;;4950184;28;20050;-65
2022/08/08 05:31:39;;;;;;;0.88;0.45;;;;;;;;;;4951664;28;20443;-65
2022/08/08 05:34:05;;;;;;;0.75;0.30;;;;;;;;;;4950403;28;20341;-65
2022/08/08 05:36:33;;;;;;;0.65;0.30;;;;;;;;;;4950390;28;20056;-65
2022/08/08 05:38:59;;;;;;;0.93;0.38;;;;;;;;;;4951081;28;20519;-65
2022/08/08 05:41:24;;;;;;;0.90;0.40;;;;;;;;;;4949657;28;20499;-65
2022/08/08 05:43:57;;;;;;;0.77;0.50;;;;;;;;;;4950135;28;20437;-65
2022/08/08 05:46:22;;;;;;;0.75;0.45;;;;;;;;;;4950542;28;20429;-65
2022/08/08 05:48:47;;;;;;;0.70;0.47;;;;;;;;;;4950026;28;20471;-65
2022/08/08 05:51:13;;;;;;;0.50;0.50;;;;;;;;;;4950040;28;20424;-65
2022/08/08 05:53:38;;;;;;;0.30;0.30;;;;;;;;;;4950042;28;20419;-65
2022/08/08 05:56:07;;;;;;;0.52;0.32;;;;;;;;;;4952059;28;20072;-65
2022/08/08 05:58:32;;;;;;;0.50;0.40;;;;;;;;;;4950490;28;20056;-65
2022/08/08 06:01:00;;;;;;;0.57;0.28;;;;;;;;;;4950196;28;20441;-66
2022/08/08 06:03:27;;;;;;;0.40;0.40;;;;;;;;;;4948435;28;20400;-65
2022/08/08 06:05:57;;;;;;;2.75;0.68;;;;;;;;;;4949972;28;20436;-66
2022/08/08 06:08:24;;;;;;;1.83;0.65;;;;;;;;;;4949609;28;20456;-65
2022/08/08 06:10:49;;;;;;;4.05;0.50;;;;;;;;;;4949654;28;20135;-65
2022/08/08 06:13:15;;;;;;;0.60;0.40;;;;;;;;;;4951280;28;20516;-65
2022/08/08 06:15:42;;;;;;;0.80;0.55;;;;;;;;;;4949565;28;20405;-65
2022/08/08 06:18:08;;;;;;;0.85;0.47;;;;;;;;;;4948038;28;20104;-66
2022/08/08 06:20:35;;;;;;;2.88;0.50;;;;;;;;;;4949566;28;20469;-65
2022/08/08 06:23:00;;;;;;;1.60;0.65;;;;;;;;;;4951056;28;20660;-66
2022/08/08 06:25:26;;;;;;;1.10;0.45;;;;;;;;;;4949504;28;20368;-65
2022/08/08 06:27:54;;;;;;;1.00;0.52;;;;;;;;;;4948793;28;20069;-65
2022/08/08 06:30:19;;;;;;;0.75;0.40;;;;;;;;;;4949585;28;20084;-66
2022/08/08 06:32:49;;;;;;;0.60;0.30;;;;;;;;;;4950088;28;20025;-65
2022/08/08 06:35:15;;;;;;;0.70;0.40;;;;;;;;;;4950911;28;20448;-65
2022/08/08 06:37:46;;;;;;;0.88;0.47;;;;;;;;;;4949215;28;20384;-65
2022/08/08 06:40:14;;;;;;;0.63;0.40;;;;;;;;;;4948281;28;20449;-65
2022/08/08 06:42:41;;;;;;;2.40;0.67;;;;;;;;;;4948970;28;20022;-65
2022/08/08 06:45:06;;;;;;;1.35;0.40;;;;;;;;;;4948941;28;20356;-65
2022/08/08 06:47:35;;;;;;;1.65;0.50;;;;;;;;;;4950558;28;20334;-65
2022/08/08 06:50:01;;;;;;;0.77;0.40;;;;;;;;;;4949199;28;20356;-65
2022/08/08 06:52:26;;;;;;;1.23;0.60;;;;;;;;;;4949067;28;20033;-65
2022/08/08 06:54:54;;;;;;;1.80;0.52;;;;;;;;;;4948930;28;20037;-66
2022/08/08 06:57:20;;;;;;;1.10;0.40;;;;;;;;;;4948815;28;20048;-65
2022/08/08 06:59:45;;;;;;;2.33;0.47;;;;;;;;;;4949002;28;20457;-65
2022/08/08 07:02:21;;;;;;;1.77;0.73;;;;;;;;;;4948897;28;20369;-65
2022/08/08 07:05:05;;;;;;;1.92;0.43;;;;;;;;;;4948723;28;20361;-65
2022/08/08 07:07:30;;;;;;;0.98;0.30;;;;;;;;;;4949395;28;20460;-65
2022/08/08 07:10:03;;;;;;;1.20;0.52;;;;;;;;;;4948498;28;20541;-65
2022/08/08 07:12:39;;;;;;;1.73;0.40;;;;;;;;;;4948113;28;20445;-65
2022/08/08 07:15:07;;;;;;;1.20;0.52;;;;;;;;;;4948580;28;20504;-68
2022/08/08 07:17:36;;;;;;;0.55;0.40;;;;;;;;;;4949258;28;20472;-65
2022/08/08 07:20:07;;;;;;;1.05;0.40;;;;;;;;;;4948702;28;20456;-65
2022/08/08 07:23:11;;;;;;;1.58;0.30;;;;;;;;;;4948658;28;20018;-65
2022/08/08 07:25:41;;;;;;;0.57;0.30;;;;;;;;;;4950029;28;20390;-65
2022/08/08 07:28:12;;;;;;;0.88;0.55;;;;;;;;;;4947930;28;20555;-66
2022/08/08 07:30:39;;;;;;;1.02;0.40;;;;;;;;;;4948357;28;20433;-65
2022/08/08 07:33:04;;;;;;;2.47;0.45;;;;;;;;;;4948572;28;20436;-65
2022/08/08 07:35:33;;;;;;;1.58;0.50;;;;;;;;;;4948492;28;20480;-66
2022/08/08 07:37:59;;;;;;;1.08;0.57;;;;;;;;;;4948771;28;20475;-65
2022/08/08 07:40:26;;;;;;;2.15;0.40;;;;;;;;;;4948620;28;20095;-65
2022/08/08 07:42:52;;;;;;;0.85;0.45;;;;;;;;;;4949406;28;20356;-65
2022/08/08 07:45:18;;;;;;;1.65;0.55;;;;;;;;;;4951010;28;20415;-71
2022/08/08 07:47:43;;;;;;;1.02;0.38;;;;;;;;;;4952433;28;20340;-65
2022/08/08 07:50:09;;;;;;;1.02;0.30;;;;;;;;;;4952325;28;20033;-65
2022/08/08 07:52:34;;;;;;;0.65;0.45;;;;;;;;;;4952434;28;20411;-65
2022/08/08 07:55:07;;;;;;;1.20;0.60;;;;;;;;;;4952228;28;20376;-65
2022/08/08 07:57:41;;;;;;;1.95;0.50;;;;;;;;;;4952645;28;20412;-65
2022/08/08 08:00:09;;;;;;;1.27;0.80;;;;;;;;;;4952192;28;20464;-66
2022/08/08 08:02:39;;;;;;;0.82;0.50;;;;;;;;;;4952578;28;20450;-65
2022/08/08 08:05:11;;;;;;;0.73;0.50;;;;;;;;;;4952278;28;20392;-65
2022/08/08 08:07:39;;;;;;;2.38;0.70;;;;;;;;;;4950619;28;20512;-65
2022/08/08 08:10:07;;;;;;;0.75;0.55;;;;;;;;;;4950541;28;20026;-65
2022/08/08 08:12:34;;;;;;;2.43;0.80;;;;;;;;;;4952045;28;20443;-68
2022/08/08 08:15:05;;;;;;;1.63;0.43;;;;;;;;;;4950992;28;20268;-65
2022/08/08 08:17:31;;;;;;;4.57;0.75;;;;;;;;;;4951830;28;20441;-65
2022/08/08 08:19:58;;;;;;;1.40;0.60;;;;;;;;;;4951846;28;20465;-65
2022/08/08 08:22:24;;;;;;;0.75;0.50;;;;;;;;;;4950113;28;20380;-65
2022/08/08 08:24:49;;;;;;;1.10;0.43;;;;;;;;;;4949818;28;20361;-65
2022/08/08 08:27:15;;;;;;;0.80;0.30;;;;;;;;;;4950389;28;20517;-66
2022/08/08 08:29:41;;;;;;;1.42;0.60;;;;;;;;;;4951518;28;20464;-65
2022/08/08 08:32:06;;;;;;;2.08;0.52;;;;;;;;;;4950485;28;20026;-66
2022/08/08 08:34:32;;;;;;;3.35;0.73;;;;;;;;;;4950329;28;20424;-65
2022/08/08 08:36:57;;;;;;;0.95;0.43;;;;;;;;;;4950291;28;20452;-66
2022/08/08 08:39:22;;;;;;;2.00;0.80;;;;;;;;;;4949047;28;20415;-66
2022/08/08 08:41:49;;;;;;;1.27;0.43;;;;;;;;;;4950024;28;20436;-66
2022/08/08 08:44:15;;;;;;;1.58;0.40;;;;;;;;;;4950284;28;20433;-66
2022/08/08 08:46:40;;;;;;;2.10;0.50;;;;;;;;;;4949969;28;20432;-65
2022/08/08 08:49:06;;;;;;;0.38;0.30;;;;;;;;;;4950148;28;20033;-65
2022/08/08 08:51:37;;;;;;;1.55;0.75;;;;;;;;;;4948504;28;20376;-65
2022/08/08 08:54:05;;;;;;;1.02;0.45;;;;;;;;;;4948348;28;20460;-65
2022/08/08 08:56:30;;;;;;;1.30;0.60;;;;;;;;;;4949175;28;20072;-65
2022/08/08 08:58:57;;;;;;;0.80;0.50;;;;;;;;;;4949950;28;20030;-65
2022/08/08 09:01:26;;;;;;;2.10;0.75;;;;;;;;;;4948666;28;20348;-69
2022/08/08 09:03:52;;;;;;;0.82;0.50;;;;;;;;;;4948529;28;20437;-65
2022/08/08 09:06:22;;;;;;;2.13;0.47;;;;;;;;;;4948609;28;20030;-66
2022/08/08 09:08:53;;;;;;;1.23;0.40;;;;;;;;;;4950273;28;20030;-65
2022/08/08 09:11:18;;;;;;;1.10;0.60;;;;;;;;;;4950036;28;20432;-66
2022/08/08 09:13:44;;;;;;;1.10;0.40;;;;;;;;;;4949558;28;20483;-65
2022/08/08 09:16:09;;;;;;;0.20;0.20;;;;;;;;;;4949436;28;20457;-66
2022/08/08 09:18:35;;;;;;;0.80;0.50;;;;;;;;;;4950791;28;20384;-65
2022/08/08 09:21:01;;;;;;;1.10;0.50;;;;;;;;;;4950511;28;20501;-65
2022/08/08 09:23:28;;;;;;;1.23;0.30;;;;;;;;;;4949768;28;20452;-65
2022/08/08 09:26:07;;;;;;;0.98;0.45;;;;;;;;;;4949945;28;20337;-65
2022/08/08 09:28:37;;;;;;;0.70;0.38;;;;;;;;;;4947841;28;20356;-66
2022/08/08 09:31:14;;;;;;;1.55;0.60;;;;;;;;;;4948062;28;20353;-65
2022/08/08 09:33:42;;;;;;;0.88;0.60;;;;;;;;;;4951465;28;20379;-65
2022/08/08 09:36:21;;;;;;;1.90;0.50;;;;;;;;;;4951119;28;20448;-67
2022/08/08 09:38:54;;;;;;;3.22;0.45;;;;;;;;;;4950239;28;20487;-65
2022/08/08 09:41:39;;;;;;;1.67;0.60;;;;;;;;;;4951122;28;20368;-66
2022/08/08 09:44:20;;;;;;;0.77;0.40;;;;;;;;;;4949458;28;20103;-65
2022/08/08 09:46:49;;;;;;;0.57;0.43;;;;;;;;;;4947895;28;20432;-66
2022/08/08 09:49:19;;;;;;;0.85;0.40;;;;;;;;;;4950673;28;20441;-66
2022/08/08 09:51:51;;;;;;;0.93;0.40;;;;;;;;;;4949143;28;20426;-66
2022/08/08 09:54:18;;;;;;;0.68;0.40;;;;;;;;;;4949106;28;20460;-65
2022/08/08 09:56:47;;;;;;;0.95;0.40;;;;;;;;;;4949110;28;20365;-65
2022/08/08 09:59:23;;;;;;;1.10;0.57;;;;;;;;;;4947621;28;20092;-67
2022/08/08 10:01:51;;;;;;;0.75;0.50;;;;;;;;;;4948867;28;20433;-66
2022/08/08 10:04:21;;;;;;;0.40;0.40;;;;;;;;;;4948802;28;20379;-66
2022/08/08 10:06:47;;;;;;;0.95;0.57;;;;;;;;;;4948622;28;20463;-65
2022/08/08 10:09:12;;;;;;;0.68;0.43;;;;;;;;;;4948590;28;20502;-67
2022/08/08 10:11:38;;;;;;;0.73;0.50;;;;;;;;;;4948619;28;20342;-66
2022/08/08 10:14:04;;;;;;;0.68;0.40;;;;;;;;;;4947090;28;20424;-65
2022/08/08 10:16:42;;;;;;;1.27;0.47;;;;;;;;;;4948480;28;20405;-65
2022/08/08 10:19:10;;;;;;;2.05;0.75;;;;;;;;;;4946786;28;20057;-66
2022/08/08 10:21:36;;;;;;;1.20;0.43;;;;;;;;;;4948285;28;20436;-65
2022/08/08 10:24:07;;;;;;;1.85;0.30;;;;;;;;;;4950367;28;20384;-65
2022/08/08 10:26:54;;;;;;;1.33;0.60;;;;;;;;;;4948736;28;20418;-67
2022/08/08 10:29:46;;;;;;;3.50;0.82;;;;;;;;;;4946177;28;20531;-65
2022/08/08 10:32:33;;;;;;;0.43;0.28;;;;;;;;;;4948008;28;20391;-65
2022/08/08 10:35:00;;;;;;;1.08;0.65;;;;;;;;;;4948243;28;20491;-70
2022/08/08 10:37:28;;;;;;;0.90;0.40;;;;;;;;;;4946952;28;20030;-65
2022/08/08 10:39:55;;;;;;;0.55;0.30;;;;;;;;;;4949055;28;20052;-69
2022/08/08 10:42:22;;;;;;;1.08;0.43;;;;;;;;;;4946422;28;20372;-66
2022/08/08 10:44:48;;;;;;;0.40;0.40;;;;;;;;;;4948015;28;20109;-67
2022/08/08 10:47:15;;;;;;;0.68;0.50;;;;;;;;;;4948138;28;20052;-70
2022/08/08 10:49:48;;;;;;;0.32;0.30;;;;;;;;;;4947879;28;20456;-65
2022/08/08 10:52:29;;;;;;;1.77;0.47;;;;;;;;;;4946589;28;20357;-66
2022/08/08 10:55:04;;;;;;;0.95;0.40;;;;;;;;;;4947918;28;20341;-68
2022/08/08 10:57:30;;;;;;;1.05;0.60;;;;;;;;;;4947714;28;20435;-66
2022/08/08 10:59:59;;;;;;;2.10;0.70;;;;;;;;;;4947839;28;20451;-66
2022/08/08 11:02:31;;;;;;;0.68;0.30;;;;;;;;;;4947738;28;20372;-66
2022/08/08 11:05:01;;;;;;;1.38;0.50;;;;;;;;;;4948084;28;20576;-65
2022/08/08 11:07:38;;;;;;;1.30;0.63;;;;;;;;;;4946149;28;20514;-66
2022/08/08 11:10:11;;;;;;;0.35;0.28;;;;;;;;;;4947648;28;20560;-66
2022/08/08 11:12:55;;;;;;;1.45;0.40;;;;;;;;;;4947580;28;20507;-65
2022/08/08 11:15:23;;;;;;;0.50;0.40;;;;;;;;;;4947598;28;20532;-66
2022/08/08 11:17:49;;;;;;;0.45;0.40;;;;;;;;;;4948544;28;20310;-66
2022/08/08 11:20:16;;;;;;;0.95;0.38;;;;;;;;;;4949197;28;20369;-67
2022/08/08 11:22:42;;;;;;;0.60;0.35;;;;;;;;;;4946805;28;20045;-65
2022/08/08 11:25:11;;;;;;;1.05;0.40;;;;;;;;;;4946503;28;20548;-66
2022/08/08 11:27:37;;;;;;;0.40;0.35;;;;;;;;;;4948461;28;20413;-66
2022/08/08 11:30:07;;;;;;;2.67;0.45;;;;;;;;;;4949348;28;20299;-66
2022/08/08 11:32:36;;;;;;;1.30;0.40;;;;;;;;;;4947134;28;20486;-66
2022/08/08 11:35:12;;;;;;;0.50;0.35;;;;;;;;;;4948499;28;20376;-66
2022/08/08 11:37:39;;;;;;;0.57;0.20;;;;;;;;;;4948443;28;20364;-67
2022/08/08 11:40:08;;;;;;;3.25;0.47;;;;;;;;;;4945983;28;20052;-66
2022/08/08 11:42:34;;;;;;;0.95;0.47;;;;;;;;;;4947420;28;20149;-66
2022/08/08 11:45:00;;;;;;;1.25;0.50;;;;;;;;;;4948323;28;20421;-66
2022/08/08 11:47:26;;;;;;;3.10;0.40;;;;;;;;;;4947226;28;20449;-66
2022/08/08 11:49:53;;;;;;;1.77;0.60;;;;;;;;;;4948326;28;20025;-66
2022/08/08 11:52:19;;;;;;;0.57;0.20;;;;;;;;;;4949302;28;20340;-66
2022/08/08 11:54:45;;;;;;;0.98;0.30;;;;;;;;;;4947610;28;20051;-67
2022/08/08 11:57:11;;;;;;;0.28;0.22;;;;;;;;;;4947117;28;20524;-66
2022/08/08 11:59:43;;;;;;;0.40;0.30;;;;;;;;;;4947328;28;20483;-65
2022/08/08 12:02:08;;;;;;;0.75;0.28;;;;;;;;;;4947054;28;20510;-66
2022/08/08 12:04:37;;;;;;;1.23;0.50;;;;;;;;;;4947083;28;20336;-66
2022/08/08 12:07:06;;;;;;;0.50;0.30;;;;;;;;;;4947047;28;20452;-70
2022/08/08 12:09:32;;;;;;;0.95;0.45;;;;;;;;;;4946845;28;20409;-68
2022/08/08 12:11:58;;;;;;;0.63;0.25;;;;;;;;;;4945629;28;20083;-70
2022/08/08 12:14:24;;;;;;;0.73;0.50;;;;;;;;;;4947057;28;20396;-71
2022/08/08 12:16:53;;;;;;;0.57;0.40;;;;;;;;;;4946953;28;20472;-66
2022/08/08 12:19:20;;;;;;;2.40;0.50;;;;;;;;;;4946978;28;20408;-64
2022/08/08 12:21:46;;;;;;;0.82;0.45;;;;;;;;;;4946979;28;20445;-64
2022/08/08 12:24:16;;;;;;;0.45;0.40;;;;;;;;;;4948180;28;20318;-64
2022/08/08 12:26:42;;;;;;;0.32;0.30;;;;;;;;;;4946906;28;20116;-64
2022/08/08 12:29:34;;;;;;;0.47;0.30;;;;;;;;;;4947442;28;20424;-64
2022/08/08 12:32:01;;;;;;;0.15;0.15;;;;;;;;;;4949641;28;20398;-64
2022/08/08 12:34:34;;;;;;;0.68;0.30;;;;;;;;;;4950529;28;20419;-64
2022/08/08 12:37:04;;;;;;;0.57;0.25;;;;;;;;;;4950664;28;20531;-66
2022/08/08 12:39:30;;;;;;;0.55;0.30;;;;;;;;;;4950395;28;20453;-66
2022/08/08 12:41:59;;;;;;;0.88;0.35;;;;;;;;;;4950814;28;20400;-66
2022/08/08 12:44:28;;;;;;;0.43;0.10;;;;;;;;;;4950646;28;20365;-68
2022/08/08 12:46:58;;;;;;;0.60;0.40;;;;;;;;;;4950334;28;20433;-66
2022/08/08 12:49:27;;;;;;;1.25;0.43;;;;;;;;;;4950146;28;20395;-67
2022/08/08 12:51:53;;;;;;;4.30;0.40;;;;;;;;;;4950276;28;20411;-67
2022/08/08 12:54:26;;;;;;;2.88;0.60;;;;;;;;;;4951895;28;20401;-66
2022/08/08 12:56:52;;;;;;;2.25;0.40;;;;;;;;;;4950505;28;20432;-66
2022/08/08 12:59:21;;;;;;;0.85;0.40;;;;;;;;;;4949094;28;20444;-66
2022/08/08 13:01:57;;;;;;;0.45;0.30;;;;;;;;;;4950405;28;20365;-66
2022/08/08 13:04:24;;;;;;;0.68;0.40;;;;;;;;;;4949939;28;20492;-66
2022/08/08 13:06:59;;;;;;;1.23;0.40;;;;;;;;;;4949765;28;20457;-67
2022/08/08 13:09:35;;;;;;;0.88;0.43;;;;;;;;;;4949766;28;20394;-68
2022/08/08 13:12:10;;;;;;;1.15;0.50;;;;;;;;;;4949655;28;20377;-67
2022/08/08 13:14:37;;;;;;;0.60;0.50;;;;;;;;;;4949554;28;20034;-66
2022/08/08 13:17:04;;;;;;;0.70;0.40;;;;;;;;;;4949422;28;20440;-66
2022/08/08 13:19:30;;;;;;;0.73;0.57;;;;;;;;;;4949708;28;20106;-66
2022/08/08 13:21:55;;;;;;;0.52;0.30;;;;;;;;;;4949682;28;20044;-66
2022/08/08 13:24:21;;;;;;;0.68;0.30;;;;;;;;;;4948817;28;20318;-66
2022/08/08 13:26:46;;;;;;;1.02;0.40;;;;;;;;;;4950241;28;20423;-66
2022/08/08 13:29:13;;;;;;;0.65;0.30;;;;;;;;;;4949978;28;20058;-68
2022/08/08 13:31:49;;;;;;;0.70;0.38;;;;;;;;;;4948472;28;20340;-66
2022/08/08 13:34:22;;;;;;;1.20;0.52;;;;;;;;;;4949402;28;20105;-66
2022/08/08 13:36:48;;;;;;;1.08;0.47;;;;;;;;;;4949626;28;20380;-65
2022/08/08 13:39:16;;;;;;;1.70;0.52;;;;;;;;;;4949806;28;20026;-66
2022/08/08 13:41:46;;;;;;;1.05;0.55;;;;;;;;;;4951282;28;20415;-66
2022/08/08 13:44:12;;;;;;;0.57;0.50;;;;;;;;;;4949843;28;20129;-66
2022/08/08 13:46:37;;;;;;;0.80;0.60;;;;;;;;;;4950628;28;20103;-65
2022/08/08 13:49:03;;;;;;;1.80;0.90;;;;;;;;;;4949182;28;20472;-66
2022/08/08 13:51:29;;;;;;;1.38;0.77;;;;;;;;;;4950558;28;20437;-66
2022/08/08 13:53:55;;;;;;;2.20;0.80;;;;;;;;;;4950769;28;20453;-67
2022/08/08 13:56:29;;;;;;;0.93;0.50;;;;;;;;;;4950678;28;20396;-66
2022/08/08 13:58:54;;;;;;;1.48;0.68;;;;;;;;;;4949767;28;20437;-66
2022/08/08 14:01:20;;;;;;;1.48;0.63;;;;;;;;;;4949240;28;20392;-66
2022/08/08 14:03:55;;;;;;;2.00;0.75;;;;;;;;;;4949075;28;20076;-65
2022/08/08 14:06:22;;;;;;;0.50;0.50;;;;;;;;;;4949182;28;20433;-65
2022/08/08 14:08:48;;;;;;;2.20;0.93;;;;;;;;;;4948732;28;20095;-65
2022/08/08 14:11:19;;;;;;;0.90;0.60;;;;;;;;;;4950886;28;20447;-67
2022/08/08 14:13:46;;;;;;;0.55;0.50;;;;;;;;;;4948692;28;20372;-67
2022/08/08 14:16:12;;;;;;;1.48;0.63;;;;;;;;;;4948718;28;20451;-66
2022/08/08 14:18:51;;;;;;;1.05;0.50;;;;;;;;;;4948501;28;20464;-66
2022/08/08 14:21:17;;;;;;;1.17;0.80;;;;;;;;;;4948468;28;20037;-66
2022/08/08 14:23:44;;;;;;;0.47;0.47;;;;;;;;;;4948572;28;20459;-66
2022/08/08 14:26:29;;;;;;;0.90;0.50;;;;;;;;;;4948360;28;20499;-66
2022/08/08 14:28:57;;;;;;;2.20;0.60;;;;;;;;;;4948444;28;20445;-66
2022/08/08 14:31:23;;;;;;;1.15;0.50;;;;;;;;;;4947037;28;20487;-65
2022/08/08 14:33:54;;;;;;;0.30;0.30;;;;;;;;;;4949224;28;20506;-66
2022/08/08 14:36:34;;;;;;;1.05;0.57;;;;;;;;;;4948708;28;20022;-66
2022/08/08 14:39:00;;;;;;;1.35;0.60;;;;;;;;;;4949070;28;20357;-66
2022/08/08 14:41:26;;;;;;;0.90;0.45;;;;;;;;;;4948494;28;20417;-66
2022/08/08 14:43:57;;;;;;;0.90;0.55;;;;;;;;;;4948789;28;20348;-65
2022/08/08 14:46:27;;;;;;;1.35;0.50;;;;;;;;;;4948920;28;20510;-66
2022/08/08 14:48:54;;;;;;;0.50;0.40;;;;;;;;;;4948625;28;20353;-65
2022/08/08 14:51:20;;;;;;;0.80;0.45;;;;;;;;;;4948005;28;20318;-66
2022/08/08 14:53:45;;;;;;;1.55;0.70;;;;;;;;;;4947787;28;20384;-67
2022/08/08 14:56:11;;;;;;;1.83;0.63;;;;;;;;;;4948525;28;20021;-66
2022/08/08 14:58:36;;;;;;;2.35;0.60;;;;;;;;;;4948545;28;20513;-66
2022/08/08 15:01:04;;;;;;;0.95;0.68;;;;;;;;;;4949793;28;20436;-66
2022/08/08 15:03:30;;;;;;;1.23;0.60;;;;;;;;;;4948651;28;20033;-66
2022/08/08 15:05:55;;;;;;;0.77;0.35;;;;;;;;;;4947753;28;20693;-68
2022/08/08 15:08:22;;;;;;;0.47;0.40;;;;;;;;;;4948778;28;20527;-66
2022/08/08 15:10:48;;;;;;;1.63;0.60;;;;;;;;;;4947777;28;20456;-66
2022/08/08 15:13:13;;;;;;;0.55;0.43;;;;;;;;;;4948414;28;20474;-66
2022/08/08 15:15:39;;;;;;;0.80;0.50;;;;;;;;;;4947857;28;20317;-66